Time;durP1;ratioP1;P1;durP2;ratioP2;P2;SDS_P1;SDS_P2;PMS_P1;PMS_P2;Temp;Humidity;BMP_temperature;BMP_pressure;BME280_temperature;BME280_humidity;BME280_pressure;Samples;Min_cycle;Max_cycle;Signal;HPM_P1;HPM_P2
2022/12/30 00:01:36;;;;;;;25.85;3.22;;;6.70;78.40;;;;;;4107043;28;20070;-86
2022/12/30 00:03:56;;;;;;;32.78;3.10;;;6.60;78.20;;;;;;4093008;28;20034;-85
2022/12/30 00:06:19;;;;;;;29.05;3.55;;;6.90;78.30;;;;;;4105040;28;20090;-87
2022/12/30 00:08:47;;;;;;;39.08;3.78;;;6.80;78.20;;;;;;4109396;28;20038;-85
2022/12/30 00:11:06;;;;;;;28.55;3.92;;;6.80;78.20;;;;;;4096083;28;20042;-86
2022/12/30 00:35:03;;;;;;;23.70;3.63;;;6.80;77.60;;;;;;4111099;28;20047;-84
2022/12/30 00:37:22;;;;;;;32.47;4.03;;;6.90;77.60;;;;;;4115350;28;20088;-85
2022/12/30 00:39:41;;;;;;;23.88;3.63;;;6.90;77.60;;;;;;4111013;28;20093;-83
2022/12/30 00:44:20;;;;;;;27.13;3.13;;;6.90;77.50;;;;;;4109929;28;21324;-86
2022/12/30 00:46:22;;;;;;;24.05;2.92;;;6.90;77.50;;;;;;4108617;28;20023;-86
2022/12/30 00:57:41;;;;;;;30.60;3.63;;;6.80;77.40;;;;;;4106132;28;20043;-85
2022/12/30 00:59:41;;;;;;;20.58;2.88;;;6.80;77.50;;;;;;4091084;28;20032;-85
2022/12/30 01:01:42;;;;;;;25.33;3.67;;;6.80;77.50;;;;;;4105838;28;20130;-85
2022/12/30 01:03:43;;;;;;;22.15;4.00;;;6.80;77.40;;;;;;4082076;29;20034;-86
2022/12/30 01:05:43;;;;;;;33.00;4.20;;;6.80;77.40;;;;;;4109559;28;20786;-87
2022/12/30 01:07:44;;;;;;;31.17;3.97;;;6.80;77.30;;;;;;4110926;28;20493;-85
2022/12/30 01:09:45;;;;;;;32.92;3.47;;;6.80;77.20;;;;;;4108077;28;20046;-86
2022/12/30 01:12:07;;;;;;;34.63;3.95;;;6.90;77.30;;;;;;4107271;28;20050;-86
2022/12/30 01:14:06;;;;;;;25.95;3.90;;;6.80;77.20;;;;;;4116082;28;20027;-85
2022/12/30 01:16:09;;;;;;;30.13;3.00;;;6.80;77.00;;;;;;4118942;28;20031;-85
2022/12/30 01:18:10;;;;;;;41.40;4.32;;;6.80;77.10;;;;;;4108259;28;20042;-86
2022/12/30 01:20:10;;;;;;;34.83;4.28;;;6.80;77.00;;;;;;4103514;28;20337;-85
2022/12/30 01:22:11;;;;;;;25.73;3.55;;;6.90;77.10;;;;;;4109044;28;20035;-85
2022/12/30 01:24:12;;;;;;;34.63;4.07;;;6.80;77.00;;;;;;4109373;28;20481;-85
2022/12/30 01:26:13;;;;;;;20.63;3.00;;;6.80;77.00;;;;;;4090219;28;20034;-85
2022/12/30 01:28:13;;;;;;;26.52;4.32;;;6.80;77.00;;;;;;4106271;28;20039;-85
2022/12/30 01:30:14;;;;;;;32.92;4.32;;;6.80;77.10;;;;;;4073803;29;20030;-85
2022/12/30 01:32:20;;;;;;;33.67;4.13;;;6.80;77.00;;;;;;4104265;28;20038;-86
2022/12/30 01:34:22;;;;;;;24.02;3.80;;;6.80;77.00;;;;;;4090266;28;20035;-85
2022/12/30 01:36:22;;;;;;;40.75;4.15;;;7.00;77.10;;;;;;4108383;28;20045;-83
2022/12/30 01:38:23;;;;;;;31.92;3.90;;;6.80;77.00;;;;;;4108492;28;20042;-83
2022/12/30 01:40:24;;;;;;;25.48;3.88;;;6.80;77.00;;;;;;4089063;28;20483;-84
2022/12/30 01:42:44;;;;;;;23.95;3.30;;;6.80;76.90;;;;;;4096378;28;20043;-83
2022/12/30 01:45:26;;;;;;;29.00;3.67;;;6.80;77.00;;;;;;4108855;28;20131;-83
2022/12/30 01:47:30;;;;;;;34.35;4.35;;;6.80;76.80;;;;;;4107449;28;20034;-82
2022/12/30 01:49:35;;;;;;;37.45;4.53;;;6.70;76.80;;;;;;4099365;28;20023;-83
2022/12/30 01:51:35;;;;;;;40.88;4.40;;;6.70;76.80;;;;;;4103434;28;20023;-84
2022/12/30 01:53:41;;;;;;;29.05;3.58;;;6.70;77.00;;;;;;4092506;28;20657;-83
2022/12/30 01:55:57;;;;;;;26.10;3.63;;;6.70;77.10;;;;;;4109162;28;20035;-84
2022/12/30 01:57:59;;;;;;;27.35;4.22;;;6.70;77.00;;;;;;4104958;28;20059;-83
2022/12/30 02:00:07;;;;;;;29.92;3.88;;;6.70;77.10;;;;;;4091731;28;20035;-83
2022/12/30 02:02:08;;;;;;;38.88;4.53;;;6.70;77.10;;;;;;4106884;28;20034;-83
2022/12/30 02:04:15;;;;;;;26.75;3.83;;;6.70;77.10;;;;;;4106340;28;20050;-84
2022/12/30 02:06:23;;;;;;;36.15;3.55;;;6.70;77.20;;;;;;4105313;28;20067;-82
2022/12/30 02:08:25;;;;;;;27.85;3.90;;;6.70;77.20;;;;;;4106338;28;20019;-83
2022/12/30 02:10:26;;;;;;;26.08;4.65;;;6.70;77.10;;;;;;4106975;28;20053;-83
2022/12/30 02:12:27;;;;;;;28.30;4.07;;;6.70;77.10;;;;;;4103402;28;20027;-81
2022/12/30 02:14:30;;;;;;;32.88;4.57;;;6.70;77.20;;;;;;4106770;28;20447;-84
2022/12/30 02:17:00;;;;;;;35.15;4.20;;;6.70;77.20;;;;;;4104273;28;20102;-83
2022/12/30 02:19:16;;;;;;;29.10;4.20;;;6.70;77.20;;;;;;4063463;29;20043;-84
2022/12/30 02:21:31;;;;;;;24.67;3.25;;;6.70;77.30;;;;;;4088779;28;20027;-84
2022/12/30 02:24:00;;;;;;;33.10;3.97;;;6.70;77.10;;;;;;4091150;28;20090;-83
2022/12/30 02:26:37;;;;;;;30.88;4.20;;;6.70;77.10;;;;;;4088917;28;20023;-84
2022/12/30 02:28:38;;;;;;;35.00;4.20;;;6.70;76.90;;;;;;4094523;28;20570;-84
2022/12/30 02:31:06;;;;;;;33.33;5.20;;;6.70;77.00;;;;;;4074358;29;20031;-85
2022/12/30 02:33:42;;;;;;;28.40;3.88;;;6.70;77.00;;;;;;4102892;28;20037;-87
2022/12/30 02:36:31;;;;;;;47.67;4.15;;;6.70;77.00;;;;;;4067939;28;20398;-85
2022/12/30 02:38:59;;;;;;;50.83;5.00;;;6.70;77.00;;;;;;4107156;28;20027;-85
2022/12/30 02:44:38;;;;;;;38.65;4.50;;;6.70;76.90;;;;;;4109173;28;20078;-85
2022/12/30 02:47:02;;;;;;;39.25;4.90;;;6.60;76.80;;;;;;4104875;28;20070;-85
2022/12/30 02:49:24;;;;;;;34.72;4.43;;;6.60;76.80;;;;;;4104091;28;20067;-86
2022/12/30 02:54:24;;;;;;;39.03;4.43;;;6.60;76.70;;;;;;4105623;28;20031;-85
2022/12/30 02:56:50;;;;;;;30.27;4.50;;;6.60;76.80;;;;;;4107992;28;20054;-85
2022/12/30 03:05:30;;;;;;;31.75;4.32;;;6.60;76.70;;;;;;4111039;28;20039;-84
2022/12/30 03:08:21;;;;;;;30.10;4.47;;;6.60;76.60;;;;;;4110571;28;20045;-85
2022/12/30 03:13:39;;;;;;;36.15;3.75;;;6.60;76.40;;;;;;4106423;28;20038;-84
2022/12/30 03:16:12;;;;;;;32.03;4.38;;;6.50;76.50;;;;;;4108348;28;20121;-84
2022/12/30 03:18:33;;;;;;;33.85;3.60;;;6.50;76.50;;;;;;4107770;28;20170;-85
2022/12/30 03:20:54;;;;;;;42.22;5.63;;;6.50;76.50;;;;;;4107209;28;20074;-85
2022/12/30 03:28:17;;;;;;;43.67;4.13;;;6.50;76.50;;;;;;4112875;28;20039;-84
2022/12/30 03:30:19;;;;;;;35.40;4.57;;;6.40;76.30;;;;;;4107725;28;20082;-85
2022/12/30 03:32:21;;;;;;;40.13;4.32;;;6.50;76.50;;;;;;4108429;28;20023;-84
2022/12/30 03:34:25;;;;;;;41.07;5.10;;;6.40;76.50;;;;;;4109417;28;20027;-84
2022/12/30 03:36:40;;;;;;;35.35;5.00;;;6.40;76.60;;;;;;4095698;28;20282;-85
2022/12/30 03:38:49;;;;;;;29.98;4.10;;;6.50;76.70;;;;;;4094361;28;20038;-85
2022/12/30 03:40:52;;;;;;;32.20;4.20;;;6.40;76.70;;;;;;4109274;28;20086;-85
2022/12/30 03:42:54;;;;;;;32.45;3.80;;;6.40;76.70;;;;;;4107067;28;20030;-85
2022/12/30 03:44:55;;;;;;;43.13;5.13;;;6.50;76.60;;;;;;4113302;28;20046;-84
2022/12/30 03:46:56;;;;;;;38.40;5.13;;;6.40;76.50;;;;;;4110891;28;20153;-84
2022/12/30 03:48:56;;;;;;;34.65;4.32;;;6.50;76.70;;;;;;4111144;28;20113;-84
2022/12/30 03:50:57;;;;;;;39.35;4.20;;;6.40;76.60;;;;;;4094668;28;20030;-84
2022/12/30 03:52:59;;;;;;;33.83;4.80;;;6.50;76.70;;;;;;4092697;28;20035;-84
2022/12/30 03:54:59;;;;;;;28.83;3.95;;;6.40;76.50;;;;;;4114326;28;20073;-84
2022/12/30 03:57:00;;;;;;;30.15;4.22;;;6.50;76.50;;;;;;4094811;28;20031;-84
2022/12/30 03:59:01;;;;;;;32.45;3.63;;;6.60;76.60;;;;;;4088532;28;20589;-84
2022/12/30 04:01:01;;;;;;;33.20;4.05;;;6.50;76.50;;;;;;4092754;28;20039;-84
2022/12/30 04:03:02;;;;;;;34.15;4.28;;;6.50;76.30;;;;;;4110475;28;20781;-84
2022/12/30 04:05:03;;;;;;;29.52;3.53;;;6.60;76.30;;;;;;4092918;28;20525;-84
2022/12/30 04:07:04;;;;;;;33.28;3.65;;;6.50;76.10;;;;;;4094312;28;20031;-84
2022/12/30 04:09:04;;;;;;;28.20;4.45;;;6.60;76.00;;;;;;4093568;28;20949;-84
2022/12/30 04:11:05;;;;;;;28.60;3.80;;;6.40;76.60;;;;;;4110245;28;20504;-84
2022/12/30 04:13:06;;;;;;;29.73;4.32;;;6.60;75.90;;;;;;4110304;28;20106;-84
2022/12/30 04:15:07;;;;;;;23.15;3.45;;;6.40;76.50;;;;;;4093425;28;20453;-83
2022/12/30 04:17:07;;;;;;;33.22;4.10;;;6.40;75.60;;;;;;4106162;28;20050;-83
2022/12/30 04:19:08;;;;;;;30.73;4.15;;;6.40;75.60;;;;;;4110415;28;20085;-84
2022/12/30 04:21:09;;;;;;;30.65;4.22;;;6.40;75.60;;;;;;4094115;28;20477;-84
2022/12/30 04:23:09;;;;;;;27.42;3.83;;;6.50;75.70;;;;;;4093844;28;20505;-85
2022/12/30 04:25:10;;;;;;;30.58;3.80;;;6.50;75.60;;;;;;4108730;28;20027;-85
2022/12/30 04:27:11;;;;;;;34.85;3.83;;;6.40;75.60;;;;;;4109455;28;20663;-85
2022/12/30 04:29:12;;;;;;;20.85;3.70;;;6.50;75.60;;;;;;4105857;28;20954;-85
2022/12/30 04:31:12;;;;;;;33.22;4.03;;;6.50;75.60;;;;;;4086907;28;20068;-84
2022/12/30 04:33:13;;;;;;;28.48;4.20;;;6.40;75.50;;;;;;4093527;28;20666;-85
2022/12/30 04:35:14;;;;;;;33.40;4.22;;;6.50;75.60;;;;;;4107066;28;20769;-86
2022/12/30 04:37:34;;;;;;;33.30;3.78;;;6.40;75.50;;;;;;4106505;28;20042;-83
2022/12/30 04:39:55;;;;;;;33.30;4.45;;;6.40;75.50;;;;;;4108860;28;20050;-85
2022/12/30 04:42:16;;;;;;;32.95;3.95;;;6.40;75.40;;;;;;4109258;28;20034;-85
2022/12/30 04:44:36;;;;;;;28.42;4.25;;;6.40;75.30;;;;;;4107489;28;20125;-84
2022/12/30 04:46:58;;;;;;;32.85;4.00;;;6.30;75.10;;;;;;4106657;28;20071;-85
2022/12/30 04:49:18;;;;;;;28.92;4.47;;;6.30;75.10;;;;;;4107534;28;20038;-84
2022/12/30 04:51:39;;;;;;;37.17;3.78;;;6.30;75.20;;;;;;4108360;28;20034;-84
2022/12/30 04:54:00;;;;;;;20.33;3.50;;;6.30;75.20;;;;;;4099439;28;20039;-84
2022/12/30 04:56:20;;;;;;;28.02;3.55;;;6.20;75.10;;;;;;4104085;28;20046;-84
2022/12/30 04:58:41;;;;;;;32.10;4.28;;;6.20;75.20;;;;;;4107299;28;20224;-85
2022/12/30 05:00:56;;;;;;;35.90;4.47;;;6.20;75.20;;;;;;4091844;28;20062;-85
2022/12/30 05:02:57;;;;;;;31.63;4.03;;;6.20;75.20;;;;;;4108475;28;20033;-84
2022/12/30 05:04:58;;;;;;;27.75;3.97;;;6.20;75.30;;;;;;4091697;28;20027;-84
2022/12/30 05:06:58;;;;;;;31.27;4.00;;;6.20;75.30;;;;;;4079444;29;20599;-84
2022/12/30 05:08:59;;;;;;;29.10;3.80;;;6.20;75.30;;;;;;4109311;28;20517;-85
2022/12/30 05:10:59;;;;;;;24.98;3.50;;;6.20;75.30;;;;;;4108320;28;20572;-84
2022/12/30 05:13:00;;;;;;;30.58;3.63;;;6.10;75.30;;;;;;4105823;28;20038;-84
2022/12/30 05:15:01;;;;;;;27.48;3.17;;;6.10;76.00;;;;;;4108196;28;20117;-84
2022/12/30 05:17:01;;;;;;;28.33;3.92;;;6.10;75.30;;;;;;4109245;28;20038;-84
2022/12/30 05:19:02;;;;;;;29.83;3.42;;;6.10;75.20;;;;;;4106917;28;20042;-84
2022/12/30 05:21:03;;;;;;;33.28;4.25;;;6.10;75.20;;;;;;4089371;28;20031;-84
2022/12/30 05:26:13;;;;;;;27.08;4.10;;;6.10;75.30;;;;;;4090594;28;20509;-84
2022/12/30 05:27:43;;;;;;;33.20;4.32;;;6.10;75.30;;;;;;4107783;28;20030;-84
2022/12/30 05:29:44;;;;;;;36.67;4.28;;;6.00;75.20;;;;;;4105253;28;20026;-84
2022/12/30 05:31:45;;;;;;;35.08;4.18;;;6.00;75.20;;;;;;4092716;28;20651;-84
2022/12/30 05:33:46;;;;;;;24.80;3.72;;;6.00;76.00;;;;;;4117203;28;20405;-84
2022/12/30 05:35:50;;;;;;;32.97;4.80;;;6.00;75.30;;;;;;4110005;28;20019;-84
2022/12/30 05:37:50;;;;;;;30.33;4.55;;;6.00;75.30;;;;;;4089190;28;20084;-84
2022/12/30 05:39:51;;;;;;;42.50;5.32;;;5.90;75.30;;;;;;4091072;28;20098;-83
2022/12/30 05:41:52;;;;;;;34.05;3.55;;;5.90;75.30;;;;;;4108312;28;20370;-84
2022/12/30 05:43:53;;;;;;;33.72;3.83;;;6.00;75.70;;;;;;4089561;28;20026;-84
2022/12/30 05:45:53;;;;;;;34.78;4.10;;;5.90;75.60;;;;;;4091044;28;20027;-84
2022/12/30 05:47:54;;;;;;;28.77;3.70;;;5.90;75.70;;;;;;4077986;29;20504;-84
2022/12/30 05:49:55;;;;;;;33.60;5.22;;;5.90;75.80;;;;;;4107571;28;20484;-84
2022/12/30 05:51:55;;;;;;;35.65;4.50;;;5.90;75.80;;;;;;4092350;28;20421;-84
2022/12/30 05:53:56;;;;;;;36.63;4.47;;;5.80;75.80;;;;;;4105829;28;20444;-85
2022/12/30 05:55:58;;;;;;;32.90;4.05;;;5.80;75.90;;;;;;4103928;28;20496;-83
2022/12/30 05:57:59;;;;;;;38.38;4.28;;;5.90;75.90;;;;;;4100909;28;20118;-84
2022/12/30 05:59:59;;;;;;;36.65;4.43;;;5.80;76.00;;;;;;4072646;29;20071;-84
2022/12/30 06:02:00;;;;;;;39.13;5.38;;;5.80;76.00;;;;;;4106797;28;20038;-84
2022/12/30 06:04:01;;;;;;;28.60;3.83;;;5.80;76.20;;;;;;4107064;28;20106;-85
2022/12/30 06:06:04;;;;;;;42.97;4.90;;;5.70;76.30;;;;;;4095215;28;20035;-84
2022/12/30 06:08:05;;;;;;;27.75;4.47;;;5.70;76.50;;;;;;4091449;28;20038;-85
2022/12/30 06:10:07;;;;;;;37.67;4.35;;;5.70;76.70;;;;;;4107479;28;20392;-84
2022/12/30 06:12:07;;;;;;;43.95;5.38;;;5.70;76.80;;;;;;4107474;28;20057;-84
2022/12/30 06:14:10;;;;;;;31.98;4.50;;;5.70;77.00;;;;;;4088105;28;20393;-84
2022/12/30 06:16:11;;;;;;;37.13;4.97;;;5.70;77.10;;;;;;4092701;28;20023;-84
2022/12/30 06:18:11;;;;;;;36.55;4.57;;;5.70;77.10;;;;;;4090618;28;20043;-84
2022/12/30 06:20:12;;;;;;;32.92;3.35;;;5.60;77.10;;;;;;4085795;28;20502;-84
2022/12/30 06:22:12;;;;;;;39.72;4.60;;;5.70;77.20;;;;;;4090301;28;20041;-84
2022/12/30 06:24:13;;;;;;;37.75;4.35;;;5.70;77.30;;;;;;4108896;28;20094;-84
2022/12/30 06:26:14;;;;;;;34.42;3.97;;;5.60;77.50;;;;;;4106306;28;20082;-84
2022/12/30 06:28:15;;;;;;;39.10;4.50;;;5.70;77.60;;;;;;4110641;28;20423;-84
2022/12/30 06:30:16;;;;;;;31.25;3.92;;;5.60;77.60;;;;;;4087533;28;20480;-84
2022/12/30 06:32:18;;;;;;;35.20;4.30;;;5.70;77.80;;;;;;4103083;28;20902;-84
2022/12/30 06:34:38;;;;;;;35.03;4.63;;;5.60;77.90;;;;;;4096857;28;20446;-84
2022/12/30 06:36:39;;;;;;;28.73;4.30;;;5.60;77.90;;;;;;4109164;28;20026;-84
2022/12/30 06:38:40;;;;;;;32.72;3.60;;;5.60;78.00;;;;;;4104969;28;20551;-84
2022/12/30 06:40:40;;;;;;;27.17;3.75;;;5.70;78.20;;;;;;4104054;28;20490;-84
2022/12/30 06:43:01;;;;;;;42.88;4.07;;;5.60;78.20;;;;;;4096131;28;20041;-84
2022/12/30 06:45:21;;;;;;;34.47;4.53;;;5.70;78.30;;;;;;4104306;28;20122;-84
2022/12/30 06:47:42;;;;;;;34.97;4.22;;;5.70;78.30;;;;;;4104736;28;20067;-83
2022/12/30 06:50:03;;;;;;;26.02;3.88;;;5.80;78.50;;;;;;4092042;28;20023;-84
2022/12/30 06:52:23;;;;;;;27.42;3.08;;;5.70;78.30;;;;;;4107826;28;20034;-84
2022/12/30 06:54:43;;;;;;;26.48;3.88;;;5.70;78.20;;;;;;4104256;28;20027;-84
2022/12/30 06:57:03;;;;;;;23.48;3.20;;;5.60;78.20;;;;;;4106865;28;20119;-84
2022/12/30 06:59:24;;;;;;;35.83;3.05;;;5.70;78.20;;;;;;4108339;28;20023;-84
2022/12/30 07:01:45;;;;;;;37.47;3.58;;;5.60;78.10;;;;;;4106082;28;20039;-83
2022/12/30 07:04:05;;;;;;;42.40;4.05;;;5.60;78.20;;;;;;4099148;28;20042;-84
2022/12/30 07:06:07;;;;;;;33.25;4.43;;;5.60;78.20;;;;;;4080891;29;20032;-84
2022/12/30 07:08:27;;;;;;;36.60;4.05;;;5.60;78.10;;;;;;4107721;28;20035;-84
2022/12/30 07:10:48;;;;;;;35.10;3.97;;;5.60;78.30;;;;;;4108156;28;20030;-84
2022/12/30 07:13:11;;;;;;;33.03;3.42;;;5.60;78.30;;;;;;4093810;28;20035;-84
2022/12/30 07:15:32;;;;;;;29.95;3.75;;;5.60;78.20;;;;;;4104188;28;20158;-83
2022/12/30 07:17:46;;;;;;;26.00;3.35;;;5.60;78.30;;;;;;4095272;28;20409;-84
2022/12/30 07:20:07;;;;;;;25.67;4.20;;;5.50;78.10;;;;;;4104182;28;20033;-84
2022/12/30 07:22:28;;;;;;;26.13;3.40;;;5.50;78.20;;;;;;4095978;28;20093;-84
2022/12/30 07:24:49;;;;;;;31.30;3.58;;;5.50;78.10;;;;;;4103533;28;20043;-84
2022/12/30 07:27:13;;;;;;;31.48;3.05;;;5.50;78.20;;;;;;4107147;28;20042;-84
2022/12/30 07:29:33;;;;;;;30.30;4.20;;;5.60;78.20;;;;;;4095395;28;20077;-84
2022/12/30 07:31:54;;;;;;;21.98;3.70;;;5.50;78.20;;;;;;4089337;28;20034;-84
2022/12/30 07:34:15;;;;;;;29.05;3.08;;;5.40;78.30;;;;;;4107583;28;20031;-84
2022/12/30 07:36:35;;;;;;;25.52;3.38;;;5.40;78.30;;;;;;4109513;28;20031;-83
2022/12/30 07:38:58;;;;;;;32.28;4.43;;;5.40;78.50;;;;;;4103206;28;20038;-85
2022/12/30 07:40:58;;;;;;;36.40;4.60;;;5.50;78.70;;;;;;4093030;28;20038;-84
2022/12/30 07:42:59;;;;;;;28.52;3.47;;;5.40;78.90;;;;;;4076223;29;20032;-84
2022/12/30 07:45:00;;;;;;;32.15;4.15;;;5.40;79.10;;;;;;4074727;28;20046;-85
2022/12/30 07:47:01;;;;;;;20.85;2.95;;;5.40;79.10;;;;;;4113507;28;20041;-84
2022/12/30 07:49:02;;;;;;;31.75;3.80;;;5.40;79.10;;;;;;4109974;28;20043;-84
2022/12/30 07:51:11;;;;;;;26.15;4.00;;;5.60;79.40;;;;;;4106927;28;20532;-83
2022/12/30 07:53:11;;;;;;;30.65;4.82;;;5.50;79.50;;;;;;4111862;28;20062;-83
2022/12/30 07:55:12;;;;;;;30.50;4.05;;;5.50;79.60;;;;;;4105772;28;20350;-84
2022/12/30 07:57:13;;;;;;;34.35;4.10;;;5.50;79.60;;;;;;4108327;28;21226;-84
2022/12/30 07:59:13;;;;;;;36.08;4.70;;;5.50;79.80;;;;;;4110962;28;20030;-84
2022/12/30 08:01:14;;;;;;;29.65;4.30;;;5.50;79.90;;;;;;4107496;28;20984;-84
2022/12/30 08:03:15;;;;;;;22.00;4.38;;;5.70;79.90;;;;;;4107554;28;21036;-85
2022/12/30 08:05:15;;;;;;;34.05;4.20;;;5.60;79.80;;;;;;4106541;28;20030;-85
2022/12/30 08:07:17;;;;;;;29.42;3.90;;;5.60;79.80;;;;;;4078604;29;20039;-84
2022/12/30 08:09:18;;;;;;;25.17;3.97;;;5.60;80.60;;;;;;4106593;28;20089;-84
2022/12/30 08:11:19;;;;;;;27.67;4.35;;;5.60;79.80;;;;;;4094087;28;20031;-84
2022/12/30 08:13:19;;;;;;;22.30;3.42;;;5.50;79.70;;;;;;4099046;28;20526;-84
2022/12/30 08:15:20;;;;;;;22.40;3.67;;;5.60;79.80;;;;;;4093816;28;20551;-84
2022/12/30 08:17:20;;;;;;;28.75;4.18;;;5.70;80.00;;;;;;4095067;28;20743;-84
2022/12/30 08:19:21;;;;;;;26.77;4.30;;;5.70;79.90;;;;;;4103266;28;20555;-85
2022/12/30 08:21:34;;;;;;;31.58;4.47;;;5.70;79.80;;;;;;4091016;28;20035;-84
2022/12/30 08:23:36;;;;;;;23.83;4.03;;;5.70;79.80;;;;;;4095863;28;20031;-83
2022/12/30 08:26:02;;;;;;;25.73;4.55;;;5.70;79.90;;;;;;4107366;28;20031;-84
2022/12/30 08:28:29;;;;;;;30.80;4.72;;;5.70;79.90;;;;;;4109372;28;20023;-84
2022/12/30 08:30:49;;;;;;;29.23;4.22;;;5.80;79.90;;;;;;4090931;28;20157;-84
2022/12/30 08:33:10;;;;;;;28.10;4.32;;;5.80;79.80;;;;;;4091715;28;20098;-84
2022/12/30 08:35:30;;;;;;;34.58;4.68;;;5.90;79.80;;;;;;4093382;28;20074;-84
2022/12/30 08:37:51;;;;;;;20.35;3.97;;;5.80;79.70;;;;;;4106521;28;20035;-84
2022/12/30 08:40:12;;;;;;;27.23;4.50;;;5.80;79.60;;;;;;4107716;28;20038;-84
2022/12/30 08:42:34;;;;;;;21.00;3.72;;;5.80;79.70;;;;;;4107509;28;20174;-84
2022/12/30 08:44:55;;;;;;;33.28;4.50;;;5.90;79.70;;;;;;4107034;28;20036;-83
2022/12/30 08:47:16;;;;;;;33.38;4.40;;;5.80;79.70;;;;;;4105407;28;20039;-83
2022/12/30 08:49:16;;;;;;;32.13;4.90;;;5.80;79.60;;;;;;4110951;28;20636;-83
2022/12/30 08:51:17;;;;;;;35.15;4.65;;;5.80;79.60;;;;;;4110107;28;20409;-83
2022/12/30 08:53:18;;;;;;;29.20;4.55;;;5.80;79.70;;;;;;4107241;28;20180;-84
2022/12/30 08:55:18;;;;;;;30.15;5.10;;;5.80;79.70;;;;;;4092401;28;20394;-84
2022/12/30 08:57:19;;;;;;;33.67;5.28;;;5.90;79.70;;;;;;4094755;28;20114;-83
2022/12/30 08:59:20;;;;;;;21.83;4.28;;;5.90;79.60;;;;;;4104950;28;20043;-83
2022/12/30 09:01:23;;;;;;;19.88;4.53;;;6.00;79.70;;;;;;4107678;28;22078;-83
2022/12/30 09:03:24;;;;;;;;;;;5.90;79.70;;;;;;4106454;28;20035;-84
2022/12/30 09:05:35;;;;;;;21.40;4.07;;;5.90;79.80;;;;;;4108153;28;19917;-84
2022/12/30 09:07:36;;;;;;;26.50;5.38;;;5.90;79.40;;;;;;4107413;28;21959;-84
2022/12/30 09:09:37;;;;;;;33.03;4.57;;;5.90;79.40;;;;;;4090495;28;20031;-83
2022/12/30 09:11:40;;;;;;;23.67;4.25;;;5.90;79.50;;;;;;4108833;28;20027;-83
2022/12/30 09:13:42;;;;;;;26.05;4.47;;;5.90;79.40;;;;;;4089320;28;20047;-83
2022/12/30 09:15:42;;;;;;;30.30;4.95;;;5.90;79.40;;;;;;4091095;28;20070;-83
2022/12/30 09:17:43;;;;;;;22.88;4.40;;;5.90;79.40;;;;;;4090847;28;20106;-84
2022/12/30 09:19:44;;;;;;;25.58;5.50;;;6.00;79.60;;;;;;4090190;28;20440;-84
2022/12/30 09:21:44;;;;;;;28.30;5.15;;;6.00;79.60;;;;;;4103259;28;20745;-83
2022/12/30 09:23:45;;;;;;;28.15;4.55;;;6.00;79.60;;;;;;4073845;29;20028;-83
2022/12/30 09:25:46;;;;;;;28.35;5.00;;;6.00;79.60;;;;;;4089668;28;20620;-85
2022/12/30 09:27:47;;;;;;;23.80;5.30;;;6.10;79.60;;;;;;4091669;28;20042;-84
2022/12/30 09:29:48;;;;;;;36.97;6.00;;;6.00;79.50;;;;;;4103595;28;20035;-84
2022/12/30 09:31:49;;;;;;;29.30;5.22;;;6.00;79.40;;;;;;4071566;29;20418;-84
2022/12/30 09:34:11;;;;;;;39.28;5.43;;;6.10;79.50;;;;;;4101325;28;20050;-83
2022/12/30 09:36:18;;;;;;;29.50;4.55;;;6.20;79.40;;;;;;4090499;28;20138;-84
2022/12/30 09:38:39;;;;;;;29.83;4.55;;;6.10;79.40;;;;;;4106821;28;20049;-84
2022/12/30 09:43:14;;;;;;;31.10;5.28;;;6.10;79.30;;;;;;4104125;28;20043;-84
2022/12/30 09:44:07;;;;;;;26.60;5.00;;;6.10;79.20;;;;;;4105016;28;20031;-84
2022/12/30 09:46:48;;;;;;;18.58;4.40;;;6.10;79.10;;;;;;4103646;28;20038;-85
2022/12/30 09:49:21;;;;;;;29.20;5.43;;;6.10;79.10;;;;;;4106615;28;20069;-86
2022/12/30 09:51:47;;;;;;;25.65;4.88;;;6.10;79.00;;;;;;4103631;28;20046;-84
2022/12/30 09:54:16;;;;;;;24.98;5.20;;;6.10;78.90;;;;;;4104769;28;20135;-84
2022/12/30 09:56:38;;;;;;;23.95;5.57;;;6.20;79.00;;;;;;4111033;28;20058;-86
2022/12/30 09:58:40;;;;;;;17.33;5.25;;;6.20;79.00;;;;;;4095495;28;20450;-84
2022/12/30 10:00:40;;;;;;;20.50;4.63;;;6.20;79.70;;;;;;4088182;28;20070;-85
2022/12/30 10:02:49;;;;;;;20.42;4.63;;;6.20;79.00;;;;;;4091103;28;20498;-84
2022/12/30 10:04:51;;;;;;;28.45;5.07;;;6.20;78.90;;;;;;4108702;28;20023;-84
2022/12/30 10:07:13;;;;;;;18.08;4.45;;;6.20;78.90;;;;;;4107342;28;20470;-84
2022/12/30 10:10:07;;;;;;;23.92;4.57;;;6.20;78.90;;;;;;4105966;28;20085;-84
2022/12/30 10:12:26;;;;;;;23.80;4.87;;;6.20;78.90;;;;;;4060792;29;20264;-85
2022/12/30 10:14:35;;;;;;;21.02;4.85;;;6.20;78.70;;;;;;4095231;28;20053;-85
2022/12/30 10:16:43;;;;;;;25.27;4.68;;;6.20;78.70;;;;;;4107661;28;20034;-84
2022/12/30 10:19:00;;;;;;;22.58;4.93;;;6.30;78.80;;;;;;4103957;28;20049;-85
2022/12/30 10:21:38;;;;;;;25.48;5.38;;;6.20;78.70;;;;;;4106996;28;20082;-84
2022/12/30 10:23:54;;;;;;;31.35;7.28;;;6.20;78.70;;;;;;4106497;28;20154;-84
2022/12/30 10:26:16;;;;;;;23.98;8.10;;;6.20;78.60;;;;;;4106654;28;20066;-86
2022/12/30 10:28:41;;;;;;;31.55;10.00;;;6.20;78.60;;;;;;4108652;28;20069;-83
2022/12/30 10:31:03;;;;;;;32.10;10.30;;;6.20;78.50;;;;;;4090220;28;20526;-84
2022/12/30 10:33:20;;;;;;;28.38;10.05;;;6.20;78.40;;;;;;4105644;28;20405;-84
2022/12/30 10:35:42;;;;;;;30.15;9.98;;;6.20;78.30;;;;;;4115015;28;20043;-84
2022/12/30 10:38:10;;;;;;;28.08;10.05;;;6.20;78.20;;;;;;4115813;28;20066;-84
2022/12/30 10:41:04;;;;;;;22.30;9.20;;;6.20;78.20;;;;;;4107307;28;20034;-84
2022/12/30 10:43:46;;;;;;;34.17;9.83;;;6.20;79.00;;;;;;4112560;28;20035;-83
2022/12/30 10:46:26;;;;;;;34.00;10.27;;;6.20;78.30;;;;;;4110218;28;20123;-84
2022/12/30 10:49:03;;;;;;;29.33;9.18;;;6.20;78.30;;;;;;4106231;28;20050;-84
2022/12/30 10:51:06;;;;;;;20.05;8.95;;;6.20;78.20;;;;;;4109516;28;20046;-83
2022/12/30 10:53:19;;;;;;;25.38;8.73;;;6.20;78.30;;;;;;4106704;28;20039;-84
2022/12/30 10:55:20;;;;;;;;;;;6.30;78.40;;;;;;4091609;28;20035;-85
2022/12/30 10:57:26;;;;;;;31.83;7.53;;;6.20;78.40;;;;;;4094344;28;20436;-85
2022/12/30 10:59:48;;;;;;;27.70;7.45;;;6.20;78.30;;;;;;4093311;28;20150;-84
2022/12/30 11:02:22;;;;;;;19.20;6.40;;;6.20;78.30;;;;;;4108259;28;20043;-85
2022/12/30 11:04:37;;;;;;;21.35;6.05;;;6.20;78.50;;;;;;4091228;28;20031;-84
2022/12/30 11:07:00;;;;;;;16.75;5.28;;;6.30;78.60;;;;;;4105323;28;20039;-85
2022/12/30 11:09:25;;;;;;;26.15;5.18;;;6.20;78.60;;;;;;4102312;28;20411;-85
2022/12/30 11:14:43;;;;;;;27.52;5.15;;;6.30;78.80;;;;;;4107340;28;20478;-85
2022/12/30 11:17:16;;;;;;;19.80;5.00;;;6.30;78.70;;;;;;4093247;28;20121;-84
2022/12/30 11:19:59;;;;;;;20.20;4.32;;;6.40;78.80;;;;;;4109014;28;20093;-84
2022/12/30 11:22:23;;;;;;;20.83;4.43;;;6.40;78.80;;;;;;4106164;28;20122;-85
2022/12/30 11:28:02;;;;;;;12.52;4.00;;;6.40;78.80;;;;;;4104857;28;19910;-84
2022/12/30 11:30:03;;;;;;;;;;;6.60;78.60;;;;;;4109720;28;20031;-84
2022/12/30 11:32:11;;;;;;;23.83;4.65;;;6.50;78.60;;;;;;4102893;28;19913;-85
2022/12/30 11:34:31;;;;;;;16.45;4.20;;;6.50;78.50;;;;;;4110632;28;20058;-84
2022/12/30 11:36:36;;;;;;;18.80;4.53;;;6.50;78.50;;;;;;4110650;28;20030;-84
2022/12/30 11:41:58;;;;;;;18.23;4.15;;;6.60;78.60;;;;;;4540241;23;20617;-84
2022/12/30 11:43:59;;;;;;;19.42;4.38;;;6.60;78.50;;;;;;4164680;28;20112;-84
2022/12/30 11:46:04;;;;;;;22.95;4.38;;;6.60;78.40;;;;;;4159014;28;20040;-83
2022/12/30 11:48:19;;;;;;;16.25;3.80;;;6.60;78.50;;;;;;4160055;28;20029;-85
2022/12/30 11:50:20;;;;;;;14.18;3.80;;;6.60;78.30;;;;;;4160188;28;20032;-87
2022/12/30 11:53:17;;;;;;;17.55;3.85;;;6.60;78.30;;;;;;4161974;23;20263;-83
2022/12/30 11:55:37;;;;;;;14.88;3.53;;;6.70;78.20;;;;;;4062525;28;20074;-82
2022/12/30 11:58:01;;;;;;;20.10;3.67;;;6.70;78.10;;;;;;4104623;28;20027;-84
2022/12/30 12:00:38;;;;;;;17.45;4.05;;;6.70;78.10;;;;;;4058595;28;20039;-85
2022/12/30 12:03:22;;;;;;;17.98;4.43;;;6.70;78.00;;;;;;4042386;29;20064;-85
2022/12/30 12:06:06;;;;;;;17.33;4.20;;;6.70;77.90;;;;;;4062987;29;20028;-85
2022/12/30 12:09:01;;;;;;;15.10;4.03;;;6.70;77.70;;;;;;4047693;28;20051;-85
2022/12/30 12:11:16;;;;;;;15.52;3.92;;;6.80;77.60;;;;;;4087115;23;20033;-84
2022/12/30 12:13:44;;;;;;;19.45;3.88;;;6.90;77.60;;;;;;4075853;28;20035;-85
2022/12/30 12:16:34;;;;;;;19.42;4.03;;;6.90;77.50;;;;;;4070377;28;20031;-85
2022/12/30 12:18:43;;;;;;;19.75;4.28;;;6.70;77.50;;;;;;4080330;28;20069;-86
2022/12/30 12:25:36;;;;;;;;;;;;;;;;;;;;;
2022/12/30 12:28:34;;;;;;;14.38;4.22;;;6.70;77.10;;;;;;4125874;28;20103;-84
2022/12/30 12:33:39;;;;;;;17.00;4.03;;;6.70;77.00;;;;;;4103561;28;20061;-84
2022/12/30 12:36:33;;;;;;;21.02;4.20;;;6.70;76.80;;;;;;4116998;28;20046;-84
2022/12/30 12:39:19;;;;;;;16.02;3.67;;;6.70;76.80;;;;;;4076833;28;20343;-84
2022/12/30 12:44:08;;;;;;;20.88;4.28;;;6.70;76.70;;;;;;4098577;28;20058;-85